Time;durP1;ratioP1;P1;durP2;ratioP2;P2;SDS_P1;SDS_P2;PMS_P1;PMS_P2;Temp;Humidity;BMP_temperature;BMP_pressure;BME280_temperature;BME280_humidity;BME280_pressure;Samples;Min_cycle;Max_cycle;Signal;HPM_P1;HPM_P2
2023/10/05 00:02:10;;;;;;;6.80;2.78;;;18.90;63.40;;;;;;5045476;28;20592;-57
2023/10/05 00:04:41;;;;;;;6.15;2.50;;;18.90;63.70;;;;;;5045803;28;20029;-54
2023/10/05 00:07:11;;;;;;;4.88;3.05;;;18.90;63.80;;;;;;5046537;28;20097;-54
2023/10/05 00:09:40;;;;;;;4.55;2.78;;;18.90;63.40;;;;;;5034882;28;20087;-56
2023/10/05 00:12:08;;;;;;;4.72;2.85;;;18.90;63.70;;;;;;5031920;28;20035;-57
2023/10/05 00:14:37;;;;;;;4.07;2.55;;;18.90;63.50;;;;;;5048047;28;20040;-54
2023/10/05 00:17:07;;;;;;;4.72;2.72;;;18.80;63.40;;;;;;5045934;28;20036;-58
2023/10/05 00:19:35;;;;;;;6.35;2.72;;;18.90;63.40;;;;;;5035428;28;20029;-63
2023/10/05 00:22:01;;;;;;;5.93;2.97;;;18.90;63.90;;;;;;5043456;28;20036;-57
2023/10/05 00:24:34;;;;;;;7.45;3.15;;;18.80;62.80;;;;;;5044669;28;20040;-56
2023/10/05 00:27:00;;;;;;;5.68;3.00;;;18.80;63.90;;;;;;5042398;28;20032;-54
2023/10/05 00:29:39;;;;;;;5.40;2.97;;;18.80;63.70;;;;;;5045028;28;20029;-53
2023/10/05 00:32:08;;;;;;;8.85;3.10;;;18.80;63.50;;;;;;5045765;28;20028;-54
2023/10/05 00:34:34;;;;;;;5.72;2.85;;;18.80;63.60;;;;;;5037984;28;20040;-57
2023/10/05 00:37:00;;;;;;;7.05;2.65;;;18.80;63.30;;;;;;5029139;28;20029;-55
2023/10/05 00:39:29;;;;;;;5.80;3.08;;;18.80;63.30;;;;;;5023354;28;20036;-57
2023/10/05 00:44:36;;;;;;;4.25;2.85;;;18.90;63.10;;;;;;5046226;28;20124;-54
2023/10/05 00:47:06;;;;;;;6.03;3.15;;;18.90;63.40;;;;;;5033985;28;20128;-53
2023/10/05 00:49:52;;;;;;;5.25;2.88;;;18.90;63.40;;;;;;5034358;28;20033;-58
2023/10/05 00:52:24;;;;;;;6.05;2.53;;;18.80;63.10;;;;;;5038915;28;20036;-57
2023/10/05 00:54:51;;;;;;;20.95;4.40;;;18.90;64.20;;;;;;5031463;28;20055;-52
2023/10/05 00:57:22;;;;;;;7.78;3.45;;;18.90;63.30;;;;;;5040842;28;20616;-53
2023/10/05 01:02:32;;;;;;;5.95;2.72;;;18.90;63.90;;;;;;5044568;28;20032;-53
2023/10/05 01:05:09;;;;;;;6.25;2.95;;;18.90;63.40;;;;;;5021207;28;20028;-55
2023/10/05 01:07:49;;;;;;;8.88;2.97;;;18.80;62.60;;;;;;5041717;28;20136;-52
2023/10/05 01:10:22;;;;;;;5.68;2.92;;;18.80;63.50;;;;;;5039150;28;20039;-57
2023/10/05 01:12:48;;;;;;;6.70;2.67;;;18.80;63.50;;;;;;5048802;28;20563;-55
2023/10/05 01:15:22;;;;;;;4.88;2.88;;;18.70;62.70;;;;;;5048524;28;20139;-55
2023/10/05 01:17:52;;;;;;;5.47;2.90;;;18.80;63.50;;;;;;5034420;28;20087;-52
2023/10/05 01:22:46;;;;;;;6.00;3.55;;;18.90;63.50;;;;;;5042007;28;20037;-56
2023/10/05 01:25:15;;;;;;;7.20;3.33;;;18.80;63.00;;;;;;5042229;28;20033;-53
2023/10/05 01:27:47;;;;;;;6.03;3.35;;;18.80;63.10;;;;;;5043637;28;20052;-54
2023/10/05 01:30:16;;;;;;;7.50;3.58;;;18.80;63.20;;;;;;5045009;28;20047;-53
2023/10/05 01:32:42;;;;;;;9.43;3.88;;;18.70;63.10;;;;;;5046524;28;20036;-56
2023/10/05 01:35:17;;;;;;;7.93;2.80;;;18.80;63.90;;;;;;5047412;28;20063;-57
2023/10/05 01:37:44;;;;;;;8.25;2.75;;;18.70;62.90;;;;;;5043092;28;20024;-55
2023/10/05 01:42:51;;;;;;;;;;;18.70;63.40;;;;;;5048952;28;20024;-56
2023/10/05 01:45:24;;;;;;;5.53;2.85;;;18.70;63.80;;;;;;5048136;28;19908;-54
2023/10/05 01:47:49;;;;;;;7.45;3.08;;;18.70;63.00;;;;;;5040791;28;20529;-54
2023/10/05 01:50:19;;;;;;;6.00;3.13;;;18.70;63.60;;;;;;5041286;28;20029;-56
2023/10/05 01:52:56;;;;;;;8.27;3.15;;;18.70;63.20;;;;;;5045244;28;20033;-56
2023/10/05 01:55:24;;;;;;;5.55;3.15;;;18.70;63.40;;;;;;5041315;28;20037;-55
2023/10/05 01:57:50;;;;;;;6.93;2.80;;;18.70;63.10;;;;;;5045692;28;20066;-55
2023/10/05 02:00:17;;;;;;;5.78;2.88;;;18.70;62.80;;;;;;5039906;28;20033;-56
2023/10/05 02:02:42;;;;;;;8.50;2.72;;;18.70;64.00;;;;;;5048513;28;20025;-54
2023/10/05 02:05:10;;;;;;;8.85;3.42;;;18.70;63.20;;;;;;5049216;28;20082;-55
2023/10/05 02:07:36;;;;;;;7.72;3.22;;;18.70;63.70;;;;;;5041355;28;20433;-55
2023/10/05 02:10:09;;;;;;;7.10;3.33;;;18.70;62.70;;;;;;5042621;28;20059;-56
2023/10/05 02:12:36;;;;;;;5.18;3.03;;;18.70;63.20;;;;;;5035047;28;20572;-55
2023/10/05 02:15:05;;;;;;;5.13;2.70;;;18.70;63.40;;;;;;5043230;28;20029;-57
2023/10/05 02:17:31;;;;;;;5.60;2.63;;;18.70;63.20;;;;;;5024226;28;20029;-53
2023/10/05 02:19:57;;;;;;;7.15;3.50;;;18.70;64.00;;;;;;5045804;28;20486;-54
2023/10/05 02:22:23;;;;;;;5.55;3.35;;;18.70;62.80;;;;;;5043875;28;20035;-51
2023/10/05 02:24:51;;;;;;;8.43;3.83;;;18.60;62.90;;;;;;5047818;28;20526;-53
2023/10/05 02:27:17;;;;;;;5.68;2.92;;;18.60;63.20;;;;;;5046178;28;20063;-54
2023/10/05 02:29:43;;;;;;;5.63;3.35;;;18.60;63.70;;;;;;5043263;28;20029;-53
2023/10/05 02:32:11;;;;;;;6.43;3.15;;;18.60;63.50;;;;;;5039348;28;20052;-58
2023/10/05 02:37:22;;;;;;;8.55;3.55;;;18.60;63.00;;;;;;5030797;28;20145;-55
2023/10/05 02:39:48;;;;;;;5.82;3.30;;;18.60;64.40;;;;;;5029016;28;20032;-55
2023/10/05 02:42:15;;;;;;;5.07;3.42;;;18.60;63.50;;;;;;5037964;28;20057;-56
2023/10/05 02:44:45;;;;;;;8.15;3.92;;;18.60;63.40;;;;;;5036571;28;20083;-52
2023/10/05 02:47:13;;;;;;;6.90;3.50;;;18.60;62.90;;;;;;5045880;28;20033;-55
2023/10/05 02:49:43;;;;;;;9.95;3.42;;;18.70;64.00;;;;;;5031261;28;20036;-55
2023/10/05 02:52:16;;;;;;;10.45;3.22;;;18.70;62.70;;;;;;5048894;28;20033;-53
2023/10/05 02:54:48;;;;;;;10.00;3.90;;;18.70;63.60;;;;;;5047912;28;20040;-52
2023/10/05 02:57:16;;;;;;;11.88;3.47;;;18.60;63.50;;;;;;5049180;28;20437;-53
2023/10/05 02:59:43;;;;;;;7.00;3.22;;;18.50;63.40;;;;;;5047438;28;20112;-52
2023/10/05 03:02:14;;;;;;;10.27;3.78;;;18.50;63.50;;;;;;5049455;28;20770;-55
2023/10/05 03:04:49;;;;;;;5.47;3.00;;;18.50;64.00;;;;;;5049661;28;20048;-52
2023/10/05 03:07:16;;;;;;;7.50;3.38;;;18.50;63.80;;;;;;5035124;28;20033;-53
2023/10/05 03:09:46;;;;;;;7.07;2.97;;;18.50;63.80;;;;;;5050339;28;20040;-54
2023/10/05 03:12:12;;;;;;;7.05;3.13;;;18.50;63.80;;;;;;5045900;28;20041;-53
2023/10/05 03:14:38;;;;;;;6.60;3.00;;;18.50;63.50;;;;;;5046850;28;20384;-52
2023/10/05 03:17:07;;;;;;;15.60;3.97;;;18.50;63.40;;;;;;5052480;28;20032;-58
2023/10/05 03:19:36;;;;;;;16.38;4.43;;;18.50;64.20;;;;;;5050703;28;20043;-52
2023/10/05 03:22:05;;;;;;;17.65;4.93;;;18.60;63.70;;;;;;5049086;28;20057;-53
2023/10/05 03:24:33;;;;;;;11.85;4.20;;;18.50;63.60;;;;;;5045645;28;20033;-53
2023/10/05 03:27:03;;;;;;;7.93;3.40;;;18.60;64.00;;;;;;5046412;28;20025;-53
2023/10/05 03:29:29;;;;;;;9.60;4.57;;;18.60;63.80;;;;;;5035703;28;20074;-53
2023/10/05 03:32:19;;;;;;;9.02;3.45;;;18.60;63.70;;;;;;5035263;28;20040;-56
2023/10/05 03:34:48;;;;;;;;;;;18.50;63.40;;;;;;5046860;28;20040;-55
2023/10/05 03:37:13;;;;;;;14.65;4.53;;;18.50;63.30;;;;;;5031196;28;19987;-54
2023/10/05 03:39:53;;;;;;;8.02;3.53;;;18.40;63.90;;;;;;5023133;28;20037;-54
2023/10/05 03:42:22;;;;;;;12.02;3.65;;;18.40;63.30;;;;;;5024337;28;20565;-56
2023/10/05 03:45:00;;;;;;;6.72;3.65;;;18.40;63.30;;;;;;5024490;28;20029;-57
2023/10/05 03:47:26;;;;;;;7.70;3.92;;;18.50;64.20;;;;;;5031376;28;20049;-54
2023/10/05 03:49:54;;;;;;;7.78;4.30;;;18.50;63.50;;;;;;5033493;28;20032;-53
2023/10/05 03:52:20;;;;;;;13.43;4.05;;;18.50;63.30;;;;;;5045258;28;20047;-52
2023/10/05 03:54:46;;;;;;;6.10;3.60;;;18.40;64.10;;;;;;5047884;28;20036;-53
2023/10/05 03:57:11;;;;;;;8.63;4.35;;;18.50;64.10;;;;;;5045744;28;20040;-51
2023/10/05 03:59:37;;;;;;;5.95;3.10;;;18.50;64.00;;;;;;5046456;28;20044;-52
2023/10/05 04:02:07;;;;;;;7.55;3.70;;;18.50;63.50;;;;;;5053776;28;20039;-54
2023/10/05 04:04:37;;;;;;;7.18;3.83;;;18.60;63.80;;;;;;5046497;28;20032;-55
2023/10/05 04:07:03;;;;;;;7.82;3.60;;;18.50;63.10;;;;;;5033206;28;20051;-53
2023/10/05 04:09:29;;;;;;;6.80;3.78;;;18.40;63.10;;;;;;5037212;28;20028;-53
2023/10/05 04:12:00;;;;;;;7.03;3.63;;;18.40;63.60;;;;;;5047724;28;20040;-54
2023/10/05 04:14:26;;;;;;;6.63;3.60;;;18.40;63.30;;;;;;5044367;28;20099;-56
2023/10/05 04:16:53;;;;;;;9.88;3.58;;;18.40;63.90;;;;;;5047074;28;20536;-55
2023/10/05 04:19:19;;;;;;;6.50;3.08;;;18.50;64.00;;;;;;5032157;28;20044;-54
2023/10/05 04:21:45;;;;;;;8.15;3.80;;;18.50;64.80;;;;;;5045779;28;20038;-54
2023/10/05 04:24:14;;;;;;;8.68;3.67;;;18.40;63.90;;;;;;5035750;28;20037;-53
2023/10/05 04:26:44;;;;;;;8.90;4.55;;;18.40;63.70;;;;;;5047132;28;20130;-58
2023/10/05 04:29:14;;;;;;;15.65;4.38;;;18.40;64.10;;;;;;5043117;28;20040;-54
2023/10/05 04:31:41;;;;;;;8.63;3.67;;;18.40;64.20;;;;;;5045070;28;20029;-54
2023/10/05 04:34:12;;;;;;;10.93;3.90;;;18.40;64.00;;;;;;5033105;28;20029;-54
2023/10/05 04:36:38;;;;;;;10.02;4.35;;;18.40;64.20;;;;;;5038661;28;20059;-57
2023/10/05 04:39:06;;;;;;;6.03;3.10;;;18.40;64.00;;;;;;5047919;28;20028;-56
2023/10/05 04:41:33;;;;;;;8.40;4.05;;;18.40;64.30;;;;;;5027525;28;20025;-57
2023/10/05 04:44:00;;;;;;;6.03;3.75;;;18.40;64.20;;;;;;5045595;28;20029;-55
2023/10/05 04:46:28;;;;;;;8.52;3.40;;;18.40;63.60;;;;;;5041098;28;20043;-54
2023/10/05 04:49:10;;;;;;;8.20;3.53;;;18.30;64.00;;;;;;5045034;28;20501;-57
2023/10/05 04:51:38;;;;;;;9.15;3.58;;;18.30;63.90;;;;;;5042156;28;21782;-54
2023/10/05 04:54:06;;;;;;;7.15;3.80;;;18.30;64.70;;;;;;5049559;28;20389;-56
2023/10/05 04:56:40;;;;;;;7.90;3.65;;;18.40;63.80;;;;;;5042510;28;20108;-55
2023/10/05 05:01:56;;;;;;;8.95;4.32;;;18.30;63.40;;;;;;5047433;28;20033;-58
2023/10/05 05:07:12;;;;;;;5.32;3.22;;;18.30;63.40;;;;;;5036308;28;20041;-54
2023/10/05 05:09:42;;;;;;;6.55;3.72;;;18.40;63.60;;;;;;5043001;28;20029;-55
2023/10/05 05:12:16;;;;;;;11.15;4.88;;;18.30;64.10;;;;;;5042289;28;20075;-52
2023/10/05 05:14:45;;;;;;;21.40;4.28;;;18.40;64.30;;;;;;5044629;28;20033;-54
2023/10/05 05:17:18;;;;;;;13.85;4.13;;;18.40;64.00;;;;;;5047837;28;20036;-56
2023/10/05 05:19:44;;;;;;;8.10;3.65;;;18.40;64.00;;;;;;5046277;28;20044;-56
2023/10/05 05:22:11;;;;;;;11.18;4.10;;;18.40;64.10;;;;;;5046408;28;20044;-56
2023/10/05 05:24:37;;;;;;;12.32;4.63;;;18.40;64.10;;;;;;5032357;28;20030;-53
2023/10/05 05:27:04;;;;;;;7.55;3.72;;;18.60;65.20;;;;;;5045265;28;20033;-53
2023/10/05 05:29:33;;;;;;;17.95;3.83;;;18.80;63.90;;;;;;5046123;28;20051;-54
2023/10/05 05:32:12;;;;;;;10.85;3.47;;;18.90;63.50;;;;;;5049190;28;20036;-52
2023/10/05 05:34:41;;;;;;;9.45;3.42;;;19.00;63.50;;;;;;5039913;28;20052;-50
2023/10/05 05:40:14;;;;;;;7.57;2.78;;;18.90;63.30;;;;;;4988475;28;20044;-54
2023/10/05 05:42:41;;;;;;;8.48;3.50;;;18.90;63.50;;;;;;5040093;28;20033;-53
2023/10/05 05:45:17;;;;;;;7.78;3.38;;;18.90;63.60;;;;;;5017349;28;20029;-52
2023/10/05 05:47:44;;;;;;;9.48;4.20;;;18.90;63.50;;;;;;5028605;28;20048;-49
2023/10/05 05:50:15;;;;;;;6.32;3.20;;;18.90;63.60;;;;;;5045191;28;20561;-49
2023/10/05 05:52:41;;;;;;;8.90;3.25;;;18.90;63.40;;;;;;5045719;28;20562;-49
2023/10/05 05:55:10;;;;;;;6.85;3.30;;;18.90;63.60;;;;;;5046657;28;20025;-48
2023/10/05 05:57:36;;;;;;;7.35;3.38;;;18.90;63.40;;;;;;5044948;28;20029;-49
2023/10/05 06:00:11;;;;;;;7.40;3.72;;;18.90;63.60;;;;;;5045317;28;20375;-50
2023/10/05 06:02:40;;;;;;;6.75;3.63;;;18.90;63.80;;;;;;5047796;28;20108;-50
2023/10/05 06:05:10;;;;;;;8.60;4.00;;;18.90;63.80;;;;;;5046105;28;20025;-50
2023/10/05 06:07:38;;;;;;;8.48;3.20;;;18.90;63.90;;;;;;5043463;28;20025;-50
2023/10/05 06:10:12;;;;;;;9.18;3.17;;;19.00;63.80;;;;;;5044907;28;20037;-50
2023/10/05 06:12:42;;;;;;;7.05;3.35;;;19.00;63.80;;;;;;5035048;28;20397;-52
2023/10/05 06:15:09;;;;;;;5.93;3.45;;;19.00;64.20;;;;;;5051278;28;20025;-52
2023/10/05 06:17:35;;;;;;;7.72;4.15;;;19.00;63.40;;;;;;5046878;28;20022;-51
2023/10/05 06:20:14;;;;;;;6.45;3.38;;;19.00;63.50;;;;;;5034234;28;20699;-49
2023/10/05 06:22:44;;;;;;;8.85;3.20;;;19.00;63.50;;;;;;5049394;28;20037;-52
2023/10/05 06:25:16;;;;;;;6.88;3.28;;;19.00;63.40;;;;;;5049546;28;20124;-49
2023/10/05 06:27:45;;;;;;;10.32;3.35;;;19.00;63.60;;;;;;5052390;28;20043;-49
2023/10/05 06:30:14;;;;;;;10.48;3.50;;;19.10;63.90;;;;;;5035159;28;20032;-49
2023/10/05 06:32:40;;;;;;;15.52;3.50;;;19.20;63.40;;;;;;5050834;28;20411;-49
2023/10/05 06:35:11;;;;;;;9.18;3.13;;;19.10;63.10;;;;;;5050733;28;20628;-48
2023/10/05 06:37:38;;;;;;;9.93;3.47;;;19.10;63.10;;;;;;5031942;28;20032;-47
2023/10/05 06:40:10;;;;;;;13.35;3.40;;;19.00;62.90;;;;;;5047072;28;20503;-50
2023/10/05 06:42:41;;;;;;;7.60;3.25;;;19.10;63.10;;;;;;5045947;28;20087;-49
2023/10/05 06:45:08;;;;;;;9.73;3.75;;;19.00;62.70;;;;;;5015379;28;20116;-49
2023/10/05 06:47:38;;;;;;;8.68;3.60;;;19.00;62.60;;;;;;5044955;28;20029;-47
2023/10/05 06:50:10;;;;;;;8.90;3.58;;;18.90;62.80;;;;;;5046912;28;20030;-49
2023/10/05 06:52:36;;;;;;;9.98;3.70;;;18.90;62.80;;;;;;5032856;28;21072;-49
2023/10/05 06:55:12;;;;;;;6.30;3.38;;;18.90;63.00;;;;;;5030976;28;20707;-48
2023/10/05 06:57:39;;;;;;;7.45;3.00;;;18.90;62.90;;;;;;5027932;28;20034;-49
2023/10/05 07:00:11;;;;;;;7.13;3.42;;;18.90;62.90;;;;;;5018485;28;20022;-49
2023/10/05 07:02:41;;;;;;;5.72;3.53;;;18.90;62.80;;;;;;5026862;28;20751;-51
2023/10/05 07:05:07;;;;;;;7.45;3.03;;;18.90;63.80;;;;;;5027499;28;20069;-50
2023/10/05 07:07:34;;;;;;;5.88;3.67;;;19.00;63.30;;;;;;5021040;28;20084;-48
2023/10/05 07:10:00;;;;;;;10.05;3.70;;;19.00;63.40;;;;;;5040181;28;20094;-48
2023/10/05 07:12:26;;;;;;;6.35;3.22;;;19.00;63.30;;;;;;5045288;28;20788;-48
2023/10/05 07:14:51;;;;;;;5.95;3.30;;;19.00;63.30;;;;;;5046485;28;20040;-49
2023/10/05 07:17:17;;;;;;;8.65;4.07;;;19.00;63.40;;;;;;5047080;28;20486;-46
2023/10/05 07:19:48;;;;;;;7.15;3.58;;;19.00;63.40;;;;;;5044705;28;20127;-48
2023/10/05 07:22:13;;;;;;;8.30;3.72;;;19.00;63.40;;;;;;5048231;28;20036;-47
2023/10/05 07:24:40;;;;;;;6.80;3.38;;;19.00;63.40;;;;;;5045609;28;20475;-48
2023/10/05 07:27:05;;;;;;;7.50;3.85;;;19.00;63.40;;;;;;5041341;28;20028;-55
2023/10/05 07:29:31;;;;;;;6.30;3.95;;;19.00;63.40;;;;;;5041165;28;20572;-49
2023/10/05 07:31:57;;;;;;;8.25;4.43;;;19.00;63.40;;;;;;5033550;28;20033;-48
2023/10/05 07:34:23;;;;;;;11.13;4.20;;;19.00;63.40;;;;;;5045429;28;20033;-49
2023/10/05 07:36:50;;;;;;;7.18;3.65;;;19.00;63.40;;;;;;5044076;28;20033;-49
2023/10/05 07:39:19;;;;;;;7.45;4.15;;;19.10;63.40;;;;;;5043728;28;20045;-48
2023/10/05 07:41:48;;;;;;;5.85;3.80;;;19.00;63.40;;;;;;5043396;28;20079;-49
2023/10/05 07:44:14;;;;;;;7.65;4.95;;;19.00;63.40;;;;;;5048010;28;20033;-48
2023/10/05 07:46:39;;;;;;;7.45;3.47;;;19.00;63.40;;;;;;5044044;28;20368;-48
2023/10/05 07:49:05;;;;;;;5.47;3.90;;;19.00;63.40;;;;;;5048881;28;20428;-50
2023/10/05 07:51:34;;;;;;;6.47;4.03;;;19.10;63.40;;;;;;5044353;28;20547;-48
2023/10/05 07:54:00;;;;;;;6.07;3.88;;;19.00;63.40;;;;;;5035502;28;20036;-47
2023/10/05 07:56:25;;;;;;;5.22;3.30;;;19.00;63.20;;;;;;5045115;28;20033;-47
2023/10/05 07:58:51;;;;;;;5.05;3.67;;;19.00;63.40;;;;;;5032308;28;20627;-49
2023/10/05 08:01:18;;;;;;;5.15;3.55;;;19.10;63.50;;;;;;5046546;28;20076;-49
2023/10/05 08:03:44;;;;;;;5.32;3.72;;;19.00;63.40;;;;;;5043225;28;20029;-47
2023/10/05 08:06:14;;;;;;;6.28;3.65;;;19.10;63.50;;;;;;5025729;28;20029;-46
2023/10/05 08:08:41;;;;;;;6.13;3.22;;;19.00;63.30;;;;;;5041763;28;20615;-47
2023/10/05 08:11:07;;;;;;;7.43;4.25;;;19.10;63.30;;;;;;5044236;28;20505;-49
2023/10/05 08:13:32;;;;;;;4.65;3.00;;;19.10;63.30;;;;;;5045583;28;20052;-49
2023/10/05 08:15:58;;;;;;;4.45;3.33;;;19.10;63.50;;;;;;5032538;28;20635;-47
2023/10/05 08:18:25;;;;;;;5.63;3.63;;;19.00;63.40;;;;;;5043832;28;20058;-52
2023/10/05 08:20:51;;;;;;;5.90;3.53;;;19.00;63.30;;;;;;5034669;28;20469;-49
2023/10/05 08:23:17;;;;;;;6.82;4.00;;;19.10;63.40;;;;;;5046284;28;20124;-48
2023/10/05 08:25:42;;;;;;;7.55;3.63;;;19.00;63.30;;;;;;5043090;28;20033;-49
2023/10/05 08:28:10;;;;;;;7.68;4.25;;;19.10;63.40;;;;;;5047970;28;20055;-47
2023/10/05 08:30:46;;;;;;;6.22;3.83;;;19.00;63.40;;;;;;5022129;28;20079;-49
2023/10/05 08:33:15;;;;;;;7.10;4.03;;;19.00;63.20;;;;;;5038816;28;20037;-49
2023/10/05 08:35:41;;;;;;;5.47;3.53;;;19.00;63.20;;;;;;5040345;28;20104;-48
2023/10/05 08:38:16;;;;;;;6.60;4.22;;;19.00;63.30;;;;;;5043156;28;20104;-51
2023/10/05 08:40:48;;;;;;;4.57;3.35;;;19.10;63.30;;;;;;5041245;28;20036;-48
2023/10/05 08:43:16;;;;;;;7.53;2.95;;;19.10;63.40;;;;;;5043607;28;20100;-50
2023/10/05 08:45:46;;;;;;;5.38;3.25;;;19.00;63.20;;;;;;5044762;28;20025;-49
2023/10/05 08:48:22;;;;;;;5.65;3.22;;;19.10;63.40;;;;;;5044136;28;20087;-48
2023/10/05 08:50:51;;;;;;;7.55;3.67;;;19.10;63.40;;;;;;5048873;28;20032;-49
2023/10/05 08:53:20;;;;;;;6.72;4.03;;;19.00;63.30;;;;;;5042273;28;20029;-50
2023/10/05 08:55:49;;;;;;;8.90;3.40;;;19.00;63.40;;;;;;5042244;28;20529;-53
2023/10/05 08:58:18;;;;;;;7.40;3.42;;;19.10;63.40;;;;;;5042514;28;20564;-50
2023/10/05 09:00:45;;;;;;;7.65;3.78;;;19.00;63.50;;;;;;5033450;28;20079;-51
2023/10/05 09:03:28;;;;;;;6.03;3.25;;;19.10;63.40;;;;;;5046821;28;20209;-47
2023/10/05 09:06:12;;;;;;;6.95;3.60;;;19.10;63.60;;;;;;5037562;28;20083;-51
2023/10/05 09:08:43;;;;;;;6.05;3.58;;;19.10;63.50;;;;;;5034743;28;20036;-51
2023/10/05 09:11:09;;;;;;;5.45;3.90;;;19.10;63.40;;;;;;5044656;28;20037;-48
2023/10/05 09:13:53;;;;;;;5.53;3.17;;;19.10;63.40;;;;;;5032460;28;20030;-51
2023/10/05 09:16:30;;;;;;;5.90;3.65;;;19.10;63.50;;;;;;5044761;28;20131;-55
2023/10/05 09:18:57;;;;;;;6.68;3.25;;;19.10;63.60;;;;;;5041122;28;20378;-48
2023/10/05 09:21:42;;;;;;;5.60;3.65;;;19.10;63.50;;;;;;5047436;28;20047;-51
2023/10/05 09:24:21;;;;;;;6.30;3.15;;;19.10;63.60;;;;;;5023065;28;20033;-49
2023/10/05 09:26:55;;;;;;;6.95;3.28;;;19.10;63.80;;;;;;5017569;28;20056;-49
2023/10/05 09:29:34;;;;;;;7.32;3.75;;;19.10;63.60;;;;;;5019730;28;20056;-48
2023/10/05 09:31:59;;;;;;;6.90;2.88;;;19.10;63.50;;;;;;5022338;28;20497;-50
2023/10/05 09:34:34;;;;;;;5.78;3.22;;;19.10;63.50;;;;;;5019733;28;20134;-50
2023/10/05 09:37:08;;;;;;;5.85;2.97;;;19.10;63.60;;;;;;5021390;28;20517;-49
2023/10/05 09:39:43;;;;;;;5.25;2.50;;;19.10;63.60;;;;;;5044180;28;20037;-47
2023/10/05 09:42:13;;;;;;;6.75;3.20;;;19.10;63.70;;;;;;5024356;28;20071;-48
2023/10/05 09:44:44;;;;;;;4.75;2.88;;;19.10;63.60;;;;;;5039574;28;20037;-49
2023/10/05 09:47:12;;;;;;;5.93;3.03;;;19.10;63.50;;;;;;5045012;22;20456;-50
2023/10/05 09:49:39;;;;;;;6.15;3.03;;;19.10;63.60;;;;;;5033574;28;20056;-50
2023/10/05 09:52:07;;;;;;;5.95;3.33;;;19.10;63.70;;;;;;5027034;28;20109;-49
2023/10/05 09:54:36;;;;;;;;;;;19.10;63.60;;;;;;5035878;28;26898;-47
2023/10/05 09:57:10;;;;;;;9.30;3.25;;;19.10;63.50;;;;;;5048293;28;19909;-48
2023/10/05 09:59:38;;;;;;;6.15;3.13;;;19.10;63.50;;;;;;5039582;28;20041;-52
2023/10/05 10:02:04;;;;;;;5.82;2.80;;;19.10;63.60;;;;;;5039932;28;20116;-49
2023/10/05 10:04:39;;;;;;;4.65;2.90;;;19.10;64.20;;;;;;5042383;28;20036;-50
2023/10/05 10:07:13;;;;;;;;;;;19.10;63.50;;;;;;5062899;28;20064;-47
2023/10/05 10:09:39;;;;;;;6.50;3.50;;;19.10;63.60;;;;;;5058278;28;19912;-48
2023/10/05 10:12:10;;;;;;;5.22;3.03;;;19.10;63.50;;;;;;5064579;28;20505;-47
2023/10/05 10:14:41;;;;;;;5.75;3.25;;;19.10;63.50;;;;;;5052600;28;20627;-49
2023/10/05 10:17:24;;;;;;;5.03;3.03;;;19.10;63.70;;;;;;5061239;28;20033;-47
2023/10/05 10:19:55;;;;;;;5.07;2.20;;;19.10;63.80;;;;;;5067694;28;20052;-50
2023/10/05 10:22:28;;;;;;;5.20;2.72;;;19.10;63.60;;;;;;5060029;28;20694;-47
2023/10/05 10:24:56;;;;;;;4.45;2.78;;;19.10;63.60;;;;;;5056781;28;20032;-49
2023/10/05 10:27:27;;;;;;;5.95;2.65;;;19.10;63.80;;;;;;5057574;28;20032;-49
2023/10/05 10:29:56;;;;;;;5.90;2.97;;;19.10;63.60;;;;;;5062025;28;20070;-50
2023/10/05 10:32:24;;;;;;;3.70;2.50;;;19.10;63.60;;;;;;5060561;28;20066;-50
2023/10/05 10:34:55;;;;;;;6.47;2.80;;;19.10;63.60;;;;;;5060784;28;20045;-48
2023/10/05 10:37:42;;;;;;;6.78;2.80;;;19.10;63.70;;;;;;5078285;28;20029;-49
2023/10/05 10:40:25;;;;;;;6.63;2.90;;;19.10;63.70;;;;;;5061212;28;20033;-57
2023/10/05 10:43:06;;;;;;;5.03;2.35;;;19.10;63.60;;;;;;5061187;28;20103;-54
2023/10/05 10:45:40;;;;;;;5.95;2.47;;;19.10;63.60;;;;;;5061536;28;20060;-49
2023/10/05 10:48:53;;;;;;;5.50;2.80;;;19.10;63.70;;;;;;5064574;28;20036;-50
2023/10/05 10:50:53;;;;;;;4.50;2.63;;;19.10;63.70;;;;;;5042027;28;20086;-52
2023/10/05 10:53:25;;;;;;;5.78;2.63;;;19.10;63.60;;;;;;5065343;28;20045;-47
2023/10/05 10:56:27;;;;;;;4.22;2.25;;;19.10;63.70;;;;;;5060815;28;20033;-47
2023/10/05 10:59:08;;;;;;;6.95;2.13;;;19.10;63.80;;;;;;5064526;28;20077;-47
2023/10/05 11:01:43;;;;;;;5.25;2.97;;;19.10;63.90;;;;;;5059857;28;20020;-49
2023/10/05 11:04:23;;;;;;;4.78;2.67;;;19.10;63.70;;;;;;5066834;28;20051;-48
2023/10/05 11:07:10;;;;;;;4.88;2.58;;;19.10;63.60;;;;;;5063977;28;21327;-48
2023/10/05 11:10:02;;;;;;;5.68;2.72;;;19.10;63.60;;;;;;5061466;28;20029;-52
2023/10/05 11:12:24;;;;;;;5.82;3.13;;;19.10;63.70;;;;;;5062452;28;20029;-50
2023/10/05 11:15:06;;;;;;;9.43;4.32;;;19.20;63.80;;;;;;5067441;28;21034;-49
2023/10/05 11:17:44;;;;;;;11.48;4.03;;;19.10;63.70;;;;;;5066757;28;20725;-48
2023/10/05 11:20:32;;;;;;;8.93;3.78;;;19.10;63.70;;;;;;5072202;28;20052;-48
2023/10/05 11:23:03;;;;;;;11.45;4.35;;;19.20;63.80;;;;;;5062291;28;20037;-51
2023/10/05 11:25:33;;;;;;;8.77;4.50;;;19.10;63.80;;;;;;5064632;28;20035;-49
2023/10/05 11:28:00;;;;;;;8.75;4.53;;;19.10;63.90;;;;;;5057097;28;20039;-49
2023/10/05 11:30:49;;;;;;;9.35;4.63;;;19.10;63.80;;;;;;5062926;28;20073;-49
2023/10/05 11:33:17;;;;;;;8.82;4.57;;;19.10;63.80;;;;;;5066513;28;20530;-49
2023/10/05 11:35:54;;;;;;;12.20;5.35;;;19.10;63.70;;;;;;5059810;28;20033;-49
2023/10/05 11:38:26;;;;;;;12.00;4.68;;;19.10;63.60;;;;;;5063815;28;20796;-48
2023/10/05 11:40:56;;;;;;;8.77;4.53;;;19.10;63.80;;;;;;5067086;28;20115;-49
2023/10/05 11:43:22;;;;;;;10.32;4.60;;;19.20;63.80;;;;;;5064946;28;20057;-48
2023/10/05 11:46:12;;;;;;;8.85;3.90;;;19.10;63.60;;;;;;5066663;28;20809;-49
2023/10/05 11:48:42;;;;;;;8.88;4.43;;;19.10;63.80;;;;;;5064676;28;20135;-60
2023/10/05 11:51:11;;;;;;;12.77;5.00;;;19.10;63.80;;;;;;5071729;28;20252;-51
2023/10/05 11:53:37;;;;;;;11.15;4.60;;;19.10;64.00;;;;;;5060497;28;20097;-49
2023/10/05 11:56:04;;;;;;;10.73;4.75;;;19.10;63.90;;;;;;5060387;28;20032;-47
2023/10/05 11:58:33;;;;;;;9.80;4.63;;;19.10;64.00;;;;;;5061452;28;20024;-49
2023/10/05 12:01:03;;;;;;;11.80;5.10;;;19.10;63.90;;;;;;5064810;28;20040;-52
2023/10/05 12:03:30;;;;;;;10.25;4.32;;;19.20;64.00;;;;;;5005847;28;20106;-49
2023/10/05 12:06:02;;;;;;;11.35;5.75;;;19.10;64.00;;;;;;5074413;28;20029;-49
2023/10/05 12:08:29;;;;;;;9.68;4.35;;;19.10;63.90;;;;;;5064275;28;20081;-50
2023/10/05 12:10:59;;;;;;;10.18;4.75;;;19.10;63.90;;;;;;5066538;28;20040;-49
2023/10/05 12:13:28;;;;;;;9.68;4.63;;;19.10;63.90;;;;;;5066002;28;20035;-49
2023/10/05 12:15:55;;;;;;;9.25;4.47;;;19.10;64.00;;;;;;5067051;28;20519;-49
2023/10/05 12:18:22;;;;;;;11.65;4.65;;;19.10;64.00;;;;;;5063252;28;20078;-49
2023/10/05 12:20:49;;;;;;;12.48;4.35;;;19.10;64.00;;;;;;5069065;28;20029;-45
2023/10/05 12:23:15;;;;;;;8.38;4.40;;;19.10;64.00;;;;;;5061526;28;20375;-50
2023/10/05 12:25:42;;;;;;;9.93;4.32;;;19.10;64.10;;;;;;5059916;28;20021;-48
2023/10/05 12:28:08;;;;;;;7.60;4.15;;;19.20;64.00;;;;;;5061637;28;20252;-46
2023/10/05 12:30:39;;;;;;;10.32;5.10;;;19.10;63.90;;;;;;5061550;28;20090;-51
2023/10/05 12:33:08;;;;;;;10.00;4.35;;;19.10;63.80;;;;;;5067936;28;20124;-46
2023/10/05 12:35:36;;;;;;;7.75;3.47;;;19.10;63.70;;;;;;5059785;28;20035;-47
2023/10/05 12:38:06;;;;;;;7.50;3.97;;;19.10;63.80;;;;;;5063762;28;20179;-47
2023/10/05 12:40:41;;;;;;;8.48;4.32;;;19.10;63.70;;;;;;5076509;28;20132;-46
2023/10/05 12:43:09;;;;;;;11.68;4.20;;;19.10;63.70;;;;;;5064674;28;20055;-49
2023/10/05 12:45:35;;;;;;;13.55;4.95;;;19.10;63.60;;;;;;5067028;28;20063;-46
2023/10/05 12:48:00;;;;;;;9.18;4.47;;;19.10;63.60;;;;;;5068190;28;20060;-47
2023/10/05 12:50:30;;;;;;;7.18;3.65;;;19.10;63.50;;;;;;5066219;28;20060;-46
2023/10/05 12:52:58;;;;;;;9.60;4.50;;;19.10;63.40;;;;;;5062276;28;20028;-46
2023/10/05 12:55:29;;;;;;;6.78;3.88;;;19.10;63.50;;;;;;5063279;28;20060;-48
2023/10/05 12:57:55;;;;;;;6.80;3.30;;;19.10;63.60;;;;;;5063312;28;20073;-48
2023/10/05 13:00:22;;;;;;;6.97;3.63;;;19.10;63.60;;;;;;5065372;28;20064;-48
2023/10/05 13:02:52;;;;;;;7.82;3.15;;;19.10;63.60;;;;;;5057089;28;20154;-48
2023/10/05 13:05:22;;;;;;;9.60;3.50;;;19.10;63.60;;;;;;5061779;28;20024;-46
2023/10/05 13:07:49;;;;;;;6.10;3.20;;;19.10;63.60;;;;;;5057412;28;20047;-48
2023/10/05 13:10:21;;;;;;;6.35;3.05;;;19.10;63.60;;;;;;5060975;28;20071;-47
2023/10/05 13:12:50;;;;;;;5.63;3.30;;;19.10;63.50;;;;;;5060717;28;20028;-46
2023/10/05 13:15:19;;;;;;;6.43;3.22;;;19.10;63.60;;;;;;5069528;28;20036;-46
2023/10/05 13:17:46;;;;;;;5.13;3.00;;;19.10;63.60;;;;;;5065007;28;20210;-46
2023/10/05 13:20:15;;;;;;;7.15;3.28;;;19.10;63.70;;;;;;5055091;28;20036;-49
2023/10/05 13:22:44;;;;;;;6.45;3.40;;;19.10;63.60;;;;;;5059449;28;20029;-50